sensor_id;sensor_type;location;lat;lon;timestamp;temperature;humidity
3262;DHT22;1643;47.746;9.000;2023-09-08T00:00:56;21.40;99.90
3262;DHT22;1643;47.746;9.000;2023-09-08T00:03:22;21.30;99.90
3262;DHT22;1643;47.746;9.000;2023-09-08T00:05:47;21.30;99.90
3262;DHT22;1643;47.746;9.000;2023-09-08T00:08:13;21.30;99.90
3262;DHT22;1643;47.746;9.000;2023-09-08T00:10:39;21.20;99.90
3262;DHT22;1643;47.746;9.000;2023-09-08T00:13:04;21.20;99.90
3262;DHT22;1643;47.746;9.000;2023-09-08T00:15:30;21.10;99.90
3262;DHT22;1643;47.746;9.000;2023-09-08T00:17:58;21.10;99.90
3262;DHT22;1643;47.746;9.000;2023-09-08T00:20:24;21.10;99.90
3262;DHT22;1643;47.746;9.000;2023-09-08T00:22:50;21.10;99.90
3262;DHT22;1643;47.746;9.000;2023-09-08T00:25:16;21.10;99.90
3262;DHT22;1643;47.746;9.000;2023-09-08T00:27:41;21.10;99.90
3262;DHT22;1643;47.746;9.000;2023-09-08T00:30:07;21.10;99.90
3262;DHT22;1643;47.746;9.000;2023-09-08T00:32:33;21.00;99.90
3262;DHT22;1643;47.746;9.000;2023-09-08T00:34:59;21.00;99.90
3262;DHT22;1643;47.746;9.000;2023-09-08T00:37:24;21.00;99.90
3262;DHT22;1643;47.746;9.000;2023-09-08T00:39:50;21.00;99.90
3262;DHT22;1643;47.746;9.000;2023-09-08T00:42:16;21.00;99.90
3262;DHT22;1643;47.746;9.000;2023-09-08T00:44:41;21.00;99.90
3262;DHT22;1643;47.746;9.000;2023-09-08T00:47:07;21.00;99.90
3262;DHT22;1643;47.746;9.000;2023-09-08T00:49:33;20.90;99.90
3262;DHT22;1643;47.746;9.000;2023-09-08T00:51:59;20.90;99.90
3262;DHT22;1643;47.746;9.000;2023-09-08T00:54:25;20.90;99.90
3262;DHT22;1643;47.746;9.000;2023-09-08T00:56:57;20.90;99.90
3262;DHT22;1643;47.746;9.000;2023-09-08T00:59:24;20.90;99.90
3262;DHT22;1643;47.746;9.000;2023-09-08T01:01:50;20.80;99.90
3262;DHT22;1643;47.746;9.000;2023-09-08T01:04:16;20.80;99.90
3262;DHT22;1643;47.746;9.000;2023-09-08T01:06:42;20.80;99.90
3262;DHT22;1643;47.746;9.000;2023-09-08T01:09:09;20.80;99.90
3262;DHT22;1643;47.746;9.000;2023-09-08T01:11:36;20.70;99.90
3262;DHT22;1643;47.746;9.000;2023-09-08T01:14:02;20.70;99.90
3262;DHT22;1643;47.746;9.000;2023-09-08T01:16:27;20.70;99.90
3262;DHT22;1643;47.746;9.000;2023-09-08T01:18:54;20.60;99.90
3262;DHT22;1643;47.746;9.000;2023-09-08T01:26:44;20.60;99.90
3262;DHT22;1643;47.746;9.000;2023-09-08T01:29:10;20.50;99.90
3262;DHT22;1643;47.746;9.000;2023-09-08T01:31:37;20.50;99.90
3262;DHT22;1643;47.746;9.000;2023-09-08T01:34:04;20.50;99.90
3262;DHT22;1643;47.746;9.000;2023-09-08T01:36:33;20.50;99.90
3262;DHT22;1643;47.746;9.000;2023-09-08T01:38:59;20.50;99.90
3262;DHT22;1643;47.746;9.000;2023-09-08T01:41:25;20.40;99.90
3262;DHT22;1643;47.746;9.000;2023-09-08T01:43:50;20.40;99.90
3262;DHT22;1643;47.746;9.000;2023-09-08T01:46:16;20.40;99.90
3262;DHT22;1643;47.746;9.000;2023-09-08T01:48:42;20.30;99.90
3262;DHT22;1643;47.746;9.000;2023-09-08T01:51:07;20.20;99.90
3262;DHT22;1643;47.746;9.000;2023-09-08T01:53:33;20.20;99.90
3262;DHT22;1643;47.746;9.000;2023-09-08T01:55:59;20.20;99.90
3262;DHT22;1643;47.746;9.000;2023-09-08T01:58:25;20.20;99.90
3262;DHT22;1643;47.746;9.000;2023-09-08T02:00:51;20.20;99.90
3262;DHT22;1643;47.746;9.000;2023-09-08T02:03:17;20.20;99.90
3262;DHT22;1643;47.746;9.000;2023-09-08T02:05:43;20.10;99.90
3262;DHT22;1643;47.746;9.000;2023-09-08T02:08:09;20.10;99.90
3262;DHT22;1643;47.746;9.000;2023-09-08T02:10:35;20.10;99.90
3262;DHT22;1643;47.746;9.000;2023-09-08T02:13:01;20.10;99.90
3262;DHT22;1643;47.746;9.000;2023-09-08T02:15:26;20.20;99.90
3262;DHT22;1643;47.746;9.000;2023-09-08T02:17:56;20.20;99.90
3262;DHT22;1643;47.746;9.000;2023-09-08T02:20:22;20.10;99.90
3262;DHT22;1643;47.746;9.000;2023-09-08T02:22:53;20.10;99.90
3262;DHT22;1643;47.746;9.000;2023-09-08T02:25:18;20.10;99.90
3262;DHT22;1643;47.746;9.000;2023-09-08T02:27:44;20.10;99.90
3262;DHT22;1643;47.746;9.000;2023-09-08T02:30:10;20.00;99.90
3262;DHT22;1643;47.746;9.000;2023-09-08T02:32:35;20.10;99.90
3262;DHT22;1643;47.746;9.000;2023-09-08T02:35:01;20.00;99.90
3262;DHT22;1643;47.746;9.000;2023-09-08T02:37:26;19.90;99.90
3262;DHT22;1643;47.746;9.000;2023-09-08T02:39:52;19.90;99.90
3262;DHT22;1643;47.746;9.000;2023-09-08T02:42:18;19.90;99.90
3262;DHT22;1643;47.746;9.000;2023-09-08T02:44:43;19.90;99.90
3262;DHT22;1643;47.746;9.000;2023-09-08T02:47:09;19.90;99.90
3262;DHT22;1643;47.746;9.000;2023-09-08T02:49:35;19.90;99.90
3262;DHT22;1643;47.746;9.000;2023-09-08T02:52:01;19.90;99.90
3262;DHT22;1643;47.746;9.000;2023-09-08T02:54:27;19.90;99.90
3262;DHT22;1643;47.746;9.000;2023-09-08T02:56:52;19.80;99.90
3262;DHT22;1643;47.746;9.000;2023-09-08T02:59:18;19.80;99.90
3262;DHT22;1643;47.746;9.000;2023-09-08T03:01:44;19.80;99.90
3262;DHT22;1643;47.746;9.000;2023-09-08T03:04:09;19.80;99.90
3262;DHT22;1643;47.746;9.000;2023-09-08T03:06:35;19.80;99.90
3262;DHT22;1643;47.746;9.000;2023-09-08T03:09:01;19.70;99.90
3262;DHT22;1643;47.746;9.000;2023-09-08T03:11:26;19.80;99.90
3262;DHT22;1643;47.746;9.000;2023-09-08T03:13:52;19.70;99.90
3262;DHT22;1643;47.746;9.000;2023-09-08T03:16:17;19.70;99.90
3262;DHT22;1643;47.746;9.000;2023-09-08T03:18:43;19.70;99.90
3262;DHT22;1643;47.746;9.000;2023-09-08T03:21:09;19.70;99.90
3262;DHT22;1643;47.746;9.000;2023-09-08T03:23:38;19.60;99.90
3262;DHT22;1643;47.746;9.000;2023-09-08T03:26:03;19.70;99.90
3262;DHT22;1643;47.746;9.000;2023-09-08T03:28:29;19.70;99.90
3262;DHT22;1643;47.746;9.000;2023-09-08T03:30:55;19.60;99.90
3262;DHT22;1643;47.746;9.000;2023-09-08T03:33:21;19.60;99.90
3262;DHT22;1643;47.746;9.000;2023-09-08T03:35:46;19.60;99.90
3262;DHT22;1643;47.746;9.000;2023-09-08T03:38:12;19.60;99.90
3262;DHT22;1643;47.746;9.000;2023-09-08T03:40:37;19.60;99.90
3262;DHT22;1643;47.746;9.000;2023-09-08T03:43:04;19.60;99.90
3262;DHT22;1643;47.746;9.000;2023-09-08T03:45:29;19.60;99.90
3262;DHT22;1643;47.746;9.000;2023-09-08T03:47:55;19.50;99.90
3262;DHT22;1643;47.746;9.000;2023-09-08T03:50:20;19.50;99.90
3262;DHT22;1643;47.746;9.000;2023-09-08T03:52:46;19.50;99.90
3262;DHT22;1643;47.746;9.000;2023-09-08T03:55:12;19.40;99.90
3262;DHT22;1643;47.746;9.000;2023-09-08T03:57:37;19.40;99.90
3262;DHT22;1643;47.746;9.000;2023-09-08T04:00:03;19.30;99.90
3262;DHT22;1643;47.746;9.000;2023-09-08T04:02:31;19.30;99.90
3262;DHT22;1643;47.746;9.000;2023-09-08T04:04:57;19.20;99.90
3262;DHT22;1643;47.746;9.000;2023-09-08T04:07:23;19.10;99.90
3262;DHT22;1643;47.746;9.000;2023-09-08T04:09:48;19.10;99.90
3262;DHT22;1643;47.746;9.000;2023-09-08T04:12:14;19.20;99.90
3262;DHT22;1643;47.746;9.000;2023-09-08T04:14:39;19.10;99.90
3262;DHT22;1643;47.746;9.000;2023-09-08T04:17:05;19.10;99.90
3262;DHT22;1643;47.746;9.000;2023-09-08T04:19:31;19.10;99.90
3262;DHT22;1643;47.746;9.000;2023-09-08T04:21:56;19.10;99.90
3262;DHT22;1643;47.746;9.000;2023-09-08T04:24:22;19.10;99.90
3262;DHT22;1643;47.746;9.000;2023-09-08T04:26:48;19.10;99.90
3262;DHT22;1643;47.746;9.000;2023-09-08T04:29:13;19.10;99.90
3262;DHT22;1643;47.746;9.000;2023-09-08T04:31:39;19.10;99.90
3262;DHT22;1643;47.746;9.000;2023-09-08T04:34:04;19.10;99.90
3262;DHT22;1643;47.746;9.000;2023-09-08T04:36:30;19.10;99.90
3262;DHT22;1643;47.746;9.000;2023-09-08T04:38:56;19.10;99.90
3262;DHT22;1643;47.746;9.000;2023-09-08T04:41:22;19.10;99.90
3262;DHT22;1643;47.746;9.000;2023-09-08T04:43:47;19.10;99.90
3262;DHT22;1643;47.746;9.000;2023-09-08T04:46:13;19.10;99.90
3262;DHT22;1643;47.746;9.000;2023-09-08T04:48:39;19.10;99.90
3262;DHT22;1643;47.746;9.000;2023-09-08T04:51:04;19.10;99.90
3262;DHT22;1643;47.746;9.000;2023-09-08T04:53:30;19.10;99.90
3262;DHT22;1643;47.746;9.000;2023-09-08T04:55:56;19.00;99.90
3262;DHT22;1643;47.746;9.000;2023-09-08T04:58:21;19.00;99.90
3262;DHT22;1643;47.746;9.000;2023-09-08T05:00:47;19.00;99.90
3262;DHT22;1643;47.746;9.000;2023-09-08T05:03:12;19.00;99.90
3262;DHT22;1643;47.746;9.000;2023-09-08T05:05:38;19.00;99.90
3262;DHT22;1643;47.746;9.000;2023-09-08T05:08:04;18.90;99.90
3262;DHT22;1643;47.746;9.000;2023-09-08T05:10:30;18.90;99.90
3262;DHT22;1643;47.746;9.000;2023-09-08T05:12:56;18.90;99.90
3262;DHT22;1643;47.746;9.000;2023-09-08T05:15:21;19.00;99.90
3262;DHT22;1643;47.746;9.000;2023-09-08T05:17:47;19.00;99.90
3262;DHT22;1643;47.746;9.000;2023-09-08T05:20:13;19.00;99.90
3262;DHT22;1643;47.746;9.000;2023-09-08T05:22:39;19.00;99.90
3262;DHT22;1643;47.746;9.000;2023-09-08T05:25:04;19.00;99.90
3262;DHT22;1643;47.746;9.000;2023-09-08T05:27:30;19.10;99.90
3262;DHT22;1643;47.746;9.000;2023-09-08T05:29:57;19.10;99.90
3262;DHT22;1643;47.746;9.000;2023-09-08T05:32:23;19.10;99.90
3262;DHT22;1643;47.746;9.000;2023-09-08T05:34:48;19.10;99.90
3262;DHT22;1643;47.746;9.000;2023-09-08T05:37:14;19.20;99.90
3262;DHT22;1643;47.746;9.000;2023-09-08T05:39:40;19.30;99.90
3262;DHT22;1643;47.746;9.000;2023-09-08T05:42:06;19.30;99.90
3262;DHT22;1643;47.746;9.000;2023-09-08T05:44:32;19.30;99.90
3262;DHT22;1643;47.746;9.000;2023-09-08T05:46:57;19.30;99.90
3262;DHT22;1643;47.746;9.000;2023-09-08T05:49:23;19.30;99.90
3262;DHT22;1643;47.746;9.000;2023-09-08T05:51:49;19.30;99.90
3262;DHT22;1643;47.746;9.000;2023-09-08T05:54:15;19.30;99.90
3262;DHT22;1643;47.746;9.000;2023-09-08T05:56:40;19.30;99.90
3262;DHT22;1643;47.746;9.000;2023-09-08T05:59:06;19.30;99.90
3262;DHT22;1643;47.746;9.000;2023-09-08T06:01:31;19.40;99.90
3262;DHT22;1643;47.746;9.000;2023-09-08T06:03:58;19.50;99.90
3262;DHT22;1643;47.746;9.000;2023-09-08T06:06:24;19.50;99.90
3262;DHT22;1643;47.746;9.000;2023-09-08T06:08:50;19.60;99.90
3262;DHT22;1643;47.746;9.000;2023-09-08T06:11:16;19.60;99.90
3262;DHT22;1643;47.746;9.000;2023-09-08T06:13:41;19.60;99.90
3262;DHT22;1643;47.746;9.000;2023-09-08T06:16:08;19.60;99.90
3262;DHT22;1643;47.746;9.000;2023-09-08T06:18:33;19.70;99.90
3262;DHT22;1643;47.746;9.000;2023-09-08T06:21:06;19.70;99.90
3262;DHT22;1643;47.746;9.000;2023-09-08T06:23:35;19.70;99.90
3262;DHT22;1643;47.746;9.000;2023-09-08T06:26:01;19.70;99.90
3262;DHT22;1643;47.746;9.000;2023-09-08T06:28:30;19.70;99.90
3262;DHT22;1643;47.746;9.000;2023-09-08T06:30:55;19.80;99.90
3262;DHT22;1643;47.746;9.000;2023-09-08T06:33:21;19.90;99.90
3262;DHT22;1643;47.746;9.000;2023-09-08T06:35:50;19.90;99.90
3262;DHT22;1643;47.746;9.000;2023-09-08T06:38:16;20.00;99.90
3262;DHT22;1643;47.746;9.000;2023-09-08T06:40:41;20.00;99.90
3262;DHT22;1643;47.746;9.000;2023-09-08T06:43:07;20.00;99.90
3262;DHT22;1643;47.746;9.000;2023-09-08T06:45:33;20.10;99.90
3262;DHT22;1643;47.746;9.000;2023-09-08T06:47:58;20.10;99.90
3262;DHT22;1643;47.746;9.000;2023-09-08T06:50:25;20.20;99.90
3262;DHT22;1643;47.746;9.000;2023-09-08T06:52:51;20.30;99.90
3262;DHT22;1643;47.746;9.000;2023-09-08T06:55:18;20.40;99.90
3262;DHT22;1643;47.746;9.000;2023-09-08T06:57:45;20.40;99.90
3262;DHT22;1643;47.746;9.000;2023-09-08T07:00:11;20.50;99.90
3262;DHT22;1643;47.746;9.000;2023-09-08T07:02:38;20.50;99.90
3262;DHT22;1643;47.746;9.000;2023-09-08T07:05:03;20.60;99.90
3262;DHT22;1643;47.746;9.000;2023-09-08T07:07:34;20.70;99.90
3262;DHT22;1643;47.746;9.000;2023-09-08T07:10:01;20.80;99.90
3262;DHT22;1643;47.746;9.000;2023-09-08T07:12:27;20.80;99.90
3262;DHT22;1643;47.746;9.000;2023-09-08T07:14:53;20.80;99.90
3262;DHT22;1643;47.746;9.000;2023-09-08T07:17:19;20.80;99.90
3262;DHT22;1643;47.746;9.000;2023-09-08T07:19:45;20.80;99.90
3262;DHT22;1643;47.746;9.000;2023-09-08T07:22:10;20.80;99.90
3262;DHT22;1643;47.746;9.000;2023-09-08T07:24:36;20.80;99.90
3262;DHT22;1643;47.746;9.000;2023-09-08T07:27:02;20.80;99.90
3262;DHT22;1643;47.746;9.000;2023-09-08T07:29:28;20.80;99.90
3262;DHT22;1643;47.746;9.000;2023-09-08T07:31:53;20.90;99.90
3262;DHT22;1643;47.746;9.000;2023-09-08T07:34:19;20.90;99.90
3262;DHT22;1643;47.746;9.000;2023-09-08T07:36:44;21.00;99.90
3262;DHT22;1643;47.746;9.000;2023-09-08T07:39:10;21.00;99.90
3262;DHT22;1643;47.746;9.000;2023-09-08T07:41:36;21.10;99.90
3262;DHT22;1643;47.746;9.000;2023-09-08T07:44:04;21.20;99.90
3262;DHT22;1643;47.746;9.000;2023-09-08T07:46:30;21.40;99.90
3262;DHT22;1643;47.746;9.000;2023-09-08T07:49:01;21.50;99.90
3262;DHT22;1643;47.746;9.000;2023-09-08T07:51:27;21.70;99.90
3262;DHT22;1643;47.746;9.000;2023-09-08T07:53:53;21.70;99.90
3262;DHT22;1643;47.746;9.000;2023-09-08T07:56:19;21.60;99.90
3262;DHT22;1643;47.746;9.000;2023-09-08T07:58:45;21.70;99.90
3262;DHT22;1643;47.746;9.000;2023-09-08T08:01:12;21.70;99.90
3262;DHT22;1643;47.746;9.000;2023-09-08T08:03:37;21.70;99.90
3262;DHT22;1643;47.746;9.000;2023-09-08T08:06:03;21.80;99.90
3262;DHT22;1643;47.746;9.000;2023-09-08T08:08:29;21.90;99.90
3262;DHT22;1643;47.746;9.000;2023-09-08T08:10:55;21.90;99.90
3262;DHT22;1643;47.746;9.000;2023-09-08T08:13:21;21.90;99.90
3262;DHT22;1643;47.746;9.000;2023-09-08T08:15:47;22.00;99.90
3262;DHT22;1643;47.746;9.000;2023-09-08T08:18:12;21.90;99.90
3262;DHT22;1643;47.746;9.000;2023-09-08T08:20:38;21.90;99.90
3262;DHT22;1643;47.746;9.000;2023-09-08T08:23:05;21.80;99.90
3262;DHT22;1643;47.746;9.000;2023-09-08T08:25:32;21.80;99.90
3262;DHT22;1643;47.746;9.000;2023-09-08T08:27:58;21.80;99.90
3262;DHT22;1643;47.746;9.000;2023-09-08T08:30:26;21.90;99.90
3262;DHT22;1643;47.746;9.000;2023-09-08T08:32:52;22.00;99.90
3262;DHT22;1643;47.746;9.000;2023-09-08T08:35:19;22.20;99.90
3262;DHT22;1643;47.746;9.000;2023-09-08T08:37:45;22.40;99.90
3262;DHT22;1643;47.746;9.000;2023-09-08T08:40:11;22.40;99.90
3262;DHT22;1643;47.746;9.000;2023-09-08T08:42:40;22.40;99.90
3262;DHT22;1643;47.746;9.000;2023-09-08T08:45:07;22.50;99.90
3262;DHT22;1643;47.746;9.000;2023-09-08T08:47:33;22.50;99.90
3262;DHT22;1643;47.746;9.000;2023-09-08T08:49:59;22.60;99.90
3262;DHT22;1643;47.746;9.000;2023-09-08T08:52:26;22.60;99.90
3262;DHT22;1643;47.746;9.000;2023-09-08T08:54:52;22.60;99.90
3262;DHT22;1643;47.746;9.000;2023-09-08T08:57:19;22.60;99.90
3262;DHT22;1643;47.746;9.000;2023-09-08T08:59:45;22.60;99.90
3262;DHT22;1643;47.746;9.000;2023-09-08T09:02:13;22.80;99.90
3262;DHT22;1643;47.746;9.000;2023-09-08T09:04:40;22.80;99.90
3262;DHT22;1643;47.746;9.000;2023-09-08T09:07:06;22.80;99.90
3262;DHT22;1643;47.746;9.000;2023-09-08T09:09:32;22.80;99.90
3262;DHT22;1643;47.746;9.000;2023-09-08T09:11:58;22.80;99.90
3262;DHT22;1643;47.746;9.000;2023-09-08T09:14:24;22.90;99.90
3262;DHT22;1643;47.746;9.000;2023-09-08T09:16:50;23.00;99.90
3262;DHT22;1643;47.746;9.000;2023-09-08T09:19:25;23.00;99.90
3262;DHT22;1643;47.746;9.000;2023-09-08T09:21:53;23.10;99.90
3262;DHT22;1643;47.746;9.000;2023-09-08T09:24:33;23.10;99.90
3262;DHT22;1643;47.746;9.000;2023-09-08T09:27:00;23.10;99.90
3262;DHT22;1643;47.746;9.000;2023-09-08T09:29:27;23.20;99.90
3262;DHT22;1643;47.746;9.000;2023-09-08T09:31:54;23.30;99.90
3262;DHT22;1643;47.746;9.000;2023-09-08T09:34:21;23.30;99.90
3262;DHT22;1643;47.746;9.000;2023-09-08T09:36:51;23.40;99.90
3262;DHT22;1643;47.746;9.000;2023-09-08T09:39:21;23.50;99.90
3262;DHT22;1643;47.746;9.000;2023-09-08T09:41:48;23.50;99.90
3262;DHT22;1643;47.746;9.000;2023-09-08T09:44:14;23.50;99.90
3262;DHT22;1643;47.746;9.000;2023-09-08T09:46:47;23.70;99.90
3262;DHT22;1643;47.746;9.000;2023-09-08T09:49:14;23.80;99.90
3262;DHT22;1643;47.746;9.000;2023-09-08T09:51:49;23.90;99.90
3262;DHT22;1643;47.746;9.000;2023-09-08T09:54:18;23.90;99.90
3262;DHT22;1643;47.746;9.000;2023-09-08T09:56:44;24.00;99.90
3262;DHT22;1643;47.746;9.000;2023-09-08T09:59:13;24.10;99.90
3262;DHT22;1643;47.746;9.000;2023-09-08T10:01:40;24.20;99.90
3262;DHT22;1643;47.746;9.000;2023-09-08T10:04:06;24.20;99.90
3262;DHT22;1643;47.746;9.000;2023-09-08T10:06:33;24.30;99.90
3262;DHT22;1643;47.746;9.000;2023-09-08T10:09:00;24.30;99.90
3262;DHT22;1643;47.746;9.000;2023-09-08T10:11:49;24.40;99.90
3262;DHT22;1643;47.746;9.000;2023-09-08T10:14:15;24.40;99.90
3262;DHT22;1643;47.746;9.000;2023-09-08T10:16:44;24.40;99.90
3262;DHT22;1643;47.746;9.000;2023-09-08T10:19:11;24.50;99.90
3262;DHT22;1643;47.746;9.000;2023-09-08T10:21:41;24.70;99.90
3262;DHT22;1643;47.746;9.000;2023-09-08T10:24:15;24.70;99.90
3262;DHT22;1643;47.746;9.000;2023-09-08T10:26:51;24.80;99.90
3262;DHT22;1643;47.746;9.000;2023-09-08T10:29:19;24.90;99.90
3262;DHT22;1643;47.746;9.000;2023-09-08T10:31:45;24.90;99.90
3262;DHT22;1643;47.746;9.000;2023-09-08T10:34:11;25.00;99.90
3262;DHT22;1643;47.746;9.000;2023-09-08T10:36:37;25.10;99.90
3262;DHT22;1643;47.746;9.000;2023-09-08T10:39:29;25.10;99.90
3262;DHT22;1643;47.746;9.000;2023-09-08T10:47:13;25.30;99.90
3262;DHT22;1643;47.746;9.000;2023-09-08T10:49:39;25.40;99.90
3262;DHT22;1643;47.746;9.000;2023-09-08T10:52:10;25.50;99.90
3262;DHT22;1643;47.746;9.000;2023-09-08T10:54:48;25.60;99.90
3262;DHT22;1643;47.746;9.000;2023-09-08T10:57:15;25.70;99.90
3262;DHT22;1643;47.746;9.000;2023-09-08T10:59:55;25.70;99.90
3262;DHT22;1643;47.746;9.000;2023-09-08T11:02:40;25.80;99.90
3262;DHT22;1643;47.746;9.000;2023-09-08T11:05:12;25.90;99.90
3262;DHT22;1643;47.746;9.000;2023-09-08T11:07:40;26.00;99.90
3262;DHT22;1643;47.746;9.000;2023-09-08T11:10:06;26.10;99.90
3262;DHT22;1643;47.746;9.000;2023-09-08T11:12:33;26.10;99.90
3262;DHT22;1643;47.746;9.000;2023-09-08T11:14:59;26.20;99.90
3262;DHT22;1643;47.746;9.000;2023-09-08T11:17:33;26.20;99.90
3262;DHT22;1643;47.746;9.000;2023-09-08T11:20:00;26.30;99.90
3262;DHT22;1643;47.746;9.000;2023-09-08T11:22:26;26.40;99.90
3262;DHT22;1643;47.746;9.000;2023-09-08T11:24:53;26.30;99.90
3262;DHT22;1643;47.746;9.000;2023-09-08T11:27:22;26.30;99.90
3262;DHT22;1643;47.746;9.000;2023-09-08T11:29:49;26.40;99.90
3262;DHT22;1643;47.746;9.000;2023-09-08T11:32:24;26.50;99.90
3262;DHT22;1643;47.746;9.000;2023-09-08T11:34:50;26.60;99.90
3262;DHT22;1643;47.746;9.000;2023-09-08T11:37:17;26.60;99.90
3262;DHT22;1643;47.746;9.000;2023-09-08T11:39:44;26.70;99.90
3262;DHT22;1643;47.746;9.000;2023-09-08T11:42:13;26.70;99.90
3262;DHT22;1643;47.746;9.000;2023-09-08T11:44:40;26.80;99.90
3262;DHT22;1643;47.746;9.000;2023-09-08T11:47:07;26.80;99.90
3262;DHT22;1643;47.746;9.000;2023-09-08T11:49:38;26.80;99.90
3262;DHT22;1643;47.746;9.000;2023-09-08T11:52:04;26.90;99.90
3262;DHT22;1643;47.746;9.000;2023-09-08T11:54:35;27.00;99.90
3262;DHT22;1643;47.746;9.000;2023-09-08T11:57:02;27.10;99.90
3262;DHT22;1643;47.746;9.000;2023-09-08T11:59:31;27.20;99.90
3262;DHT22;1643;47.746;9.000;2023-09-08T12:01:58;27.20;99.90
3262;DHT22;1643;47.746;9.000;2023-09-08T12:04:24;27.20;99.90
3262;DHT22;1643;47.746;9.000;2023-09-08T12:06:51;27.30;99.90
3262;DHT22;1643;47.746;9.000;2023-09-08T12:09:17;27.40;99.90
3262;DHT22;1643;47.746;9.000;2023-09-08T12:11:43;27.50;99.90
3262;DHT22;1643;47.746;9.000;2023-09-08T12:14:13;27.60;99.90
3262;DHT22;1643;47.746;9.000;2023-09-08T12:16:40;27.70;99.90
3262;DHT22;1643;47.746;9.000;2023-09-08T12:19:07;27.90;99.90
3262;DHT22;1643;47.746;9.000;2023-09-08T12:21:54;27.90;99.90
3262;DHT22;1643;47.746;9.000;2023-09-08T12:24:20;28.00;99.90
3262;DHT22;1643;47.746;9.000;2023-09-08T12:26:45;28.00;99.90
3262;DHT22;1643;47.746;9.000;2023-09-08T12:29:14;28.00;99.90
3262;DHT22;1643;47.746;9.000;2023-09-08T12:31:39;28.10;99.90
3262;DHT22;1643;47.746;9.000;2023-09-08T12:34:05;28.20;99.90
3262;DHT22;1643;47.746;9.000;2023-09-08T12:36:36;28.30;99.90
3262;DHT22;1643;47.746;9.000;2023-09-08T12:39:04;28.30;99.90
3262;DHT22;1643;47.746;9.000;2023-09-08T12:41:30;28.30;99.90
3262;DHT22;1643;47.746;9.000;2023-09-08T12:43:56;28.40;99.90
3262;DHT22;1643;47.746;9.000;2023-09-08T12:46:21;28.50;99.90
3262;DHT22;1643;47.746;9.000;2023-09-08T12:48:47;28.70;99.90
3262;DHT22;1643;47.746;9.000;2023-09-08T12:51:13;28.70;99.90
3262;DHT22;1643;47.746;9.000;2023-09-08T12:53:38;28.80;99.90
3262;DHT22;1643;47.746;9.000;2023-09-08T12:56:04;28.90;99.90
3262;DHT22;1643;47.746;9.000;2023-09-08T12:58:29;28.90;99.90
3262;DHT22;1643;47.746;9.000;2023-09-08T13:00:55;28.90;99.90
3262;DHT22;1643;47.746;9.000;2023-09-08T13:03:21;29.00;99.90
3262;DHT22;1643;47.746;9.000;2023-09-08T13:05:47;29.00;99.90
3262;DHT22;1643;47.746;9.000;2023-09-08T13:08:12;29.00;99.90
3262;DHT22;1643;47.746;9.000;2023-09-08T13:10:40;29.20;99.90
3262;DHT22;1643;47.746;9.000;2023-09-08T13:13:06;29.20;99.90
3262;DHT22;1643;47.746;9.000;2023-09-08T13:15:32;29.20;99.90
3262;DHT22;1643;47.746;9.000;2023-09-08T13:17:57;29.20;99.90
3262;DHT22;1643;47.746;9.000;2023-09-08T13:20:23;29.20;99.90
3262;DHT22;1643;47.746;9.000;2023-09-08T13:22:49;29.20;99.90
3262;DHT22;1643;47.746;9.000;2023-09-08T13:25:14;29.40;99.90
3262;DHT22;1643;47.746;9.000;2023-09-08T13:27:43;29.50;99.90
3262;DHT22;1643;47.746;9.000;2023-09-08T13:30:14;29.60;99.90
3262;DHT22;1643;47.746;9.000;2023-09-08T13:32:41;29.60;99.90
3262;DHT22;1643;47.746;9.000;2023-09-08T13:35:07;29.70;99.90
3262;DHT22;1643;47.746;9.000;2023-09-08T13:37:33;29.80;99.90
3262;DHT22;1643;47.746;9.000;2023-09-08T13:40:03;29.90;99.90
3262;DHT22;1643;47.746;9.000;2023-09-08T13:42:29;29.80;99.90
3262;DHT22;1643;47.746;9.000;2023-09-08T13:44:55;29.80;99.90
3262;DHT22;1643;47.746;9.000;2023-09-08T13:47:21;29.90;99.90
3262;DHT22;1643;47.746;9.000;2023-09-08T13:49:47;29.80;99.90
3262;DHT22;1643;47.746;9.000;2023-09-08T13:52:12;29.90;99.90
3262;DHT22;1643;47.746;9.000;2023-09-08T13:54:38;29.90;99.90
3262;DHT22;1643;47.746;9.000;2023-09-08T13:57:05;29.90;99.90
3262;DHT22;1643;47.746;9.000;2023-09-08T13:59:30;29.80;99.90
3262;DHT22;1643;47.746;9.000;2023-09-08T14:01:56;29.90;99.90
3262;DHT22;1643;47.746;9.000;2023-09-08T14:04:23;30.10;99.90
3262;DHT22;1643;47.746;9.000;2023-09-08T14:06:49;30.20;99.90
3262;DHT22;1643;47.746;9.000;2023-09-08T14:09:15;30.20;99.90
3262;DHT22;1643;47.746;9.000;2023-09-08T14:11:41;30.20;99.90
3262;DHT22;1643;47.746;9.000;2023-09-08T14:14:07;30.30;99.90
3262;DHT22;1643;47.746;9.000;2023-09-08T14:16:32;30.40;99.90
3262;DHT22;1643;47.746;9.000;2023-09-08T14:18:58;30.30;99.90
3262;DHT22;1643;47.746;9.000;2023-09-08T14:21:24;30.40;99.90
3262;DHT22;1643;47.746;9.000;2023-09-08T14:23:50;30.40;99.90
3262;DHT22;1643;47.746;9.000;2023-09-08T14:26:15;30.60;99.90
3262;DHT22;1643;47.746;9.000;2023-09-08T14:28:42;30.60;99.90
3262;DHT22;1643;47.746;9.000;2023-09-08T14:31:08;30.70;99.90
3262;DHT22;1643;47.746;9.000;2023-09-08T14:33:33;30.70;99.80
3262;DHT22;1643;47.746;9.000;2023-09-08T14:35:59;30.60;99.80
3262;DHT22;1643;47.746;9.000;2023-09-08T14:38:26;30.80;99.80
3262;DHT22;1643;47.746;9.000;2023-09-08T14:41:00;30.90;99.60
3262;DHT22;1643;47.746;9.000;2023-09-08T14:43:26;31.00;99.40
3262;DHT22;1643;47.746;9.000;2023-09-08T14:45:53;30.90;99.40
3262;DHT22;1643;47.746;9.000;2023-09-08T14:48:19;30.90;99.70
3262;DHT22;1643;47.746;9.000;2023-09-08T14:50:45;31.00;99.60
3262;DHT22;1643;47.746;9.000;2023-09-08T14:53:11;30.90;99.50
3262;DHT22;1643;47.746;9.000;2023-09-08T14:55:37;30.90;99.50
3262;DHT22;1643;47.746;9.000;2023-09-08T14:58:03;30.80;99.60
3262;DHT22;1643;47.746;9.000;2023-09-08T15:00:28;30.90;99.50
3262;DHT22;1643;47.746;9.000;2023-09-08T15:02:54;30.70;99.40
3262;DHT22;1643;47.746;9.000;2023-09-08T15:05:19;30.70;99.50
3262;DHT22;1643;47.746;9.000;2023-09-08T15:07:45;30.80;99.50
3262;DHT22;1643;47.746;9.000;2023-09-08T15:10:11;30.90;99.30
3262;DHT22;1643;47.746;9.000;2023-09-08T15:12:37;30.90;99.40
3262;DHT22;1643;47.746;9.000;2023-09-08T15:15:03;30.90;99.20
3262;DHT22;1643;47.746;9.000;2023-09-08T15:17:29;30.90;99.30
3262;DHT22;1643;47.746;9.000;2023-09-08T15:19:55;31.00;99.30
3262;DHT22;1643;47.746;9.000;2023-09-08T15:22:20;31.20;99.10
3262;DHT22;1643;47.746;9.000;2023-09-08T15:24:46;31.20;98.90
3262;DHT22;1643;47.746;9.000;2023-09-08T15:27:12;31.00;98.80
3262;DHT22;1643;47.746;9.000;2023-09-08T15:29:38;31.10;98.80
3262;DHT22;1643;47.746;9.000;2023-09-08T15:32:04;31.20;98.60
3262;DHT22;1643;47.746;9.000;2023-09-08T15:34:31;31.00;98.50
3262;DHT22;1643;47.746;9.000;2023-09-08T15:36:57;31.00;98.50
3262;DHT22;1643;47.746;9.000;2023-09-08T15:39:23;31.10;98.40
3262;DHT22;1643;47.746;9.000;2023-09-08T15:41:48;31.10;98.60
3262;DHT22;1643;47.746;9.000;2023-09-08T15:44:14;31.00;98.40
3262;DHT22;1643;47.746;9.000;2023-09-08T15:46:40;31.00;98.50
3262;DHT22;1643;47.746;9.000;2023-09-08T15:49:06;31.20;98.30
3262;DHT22;1643;47.746;9.000;2023-09-08T15:51:32;31.10;98.20
3262;DHT22;1643;47.746;9.000;2023-09-08T15:53:58;31.10;98.10
3262;DHT22;1643;47.746;9.000;2023-09-08T15:56:23;31.00;98.10
3262;DHT22;1643;47.746;9.000;2023-09-08T15:58:49;31.00;98.10
3262;DHT22;1643;47.746;9.000;2023-09-08T16:01:15;31.10;98.20
3262;DHT22;1643;47.746;9.000;2023-09-08T16:03:41;31.30;98.10
3262;DHT22;1643;47.746;9.000;2023-09-08T16:06:06;31.30;98.00
3262;DHT22;1643;47.746;9.000;2023-09-08T16:08:36;31.40;98.00